sensor_id;sensor_type;location;lat;lon;timestamp;P1;durP1;ratioP1;P2;durP2;ratioP2
61356;SDS011;47227;46.752;23.576;2023-05-07T00:00:00;6.10;;;5.20;;
61356;SDS011;47227;46.752;23.576;2023-05-07T00:03:44;5.00;;;4.30;;
61356;SDS011;47227;46.752;23.576;2023-05-07T00:07:03;7.20;;;5.10;;
61356;SDS011;47227;46.752;23.576;2023-05-07T00:11:03;5.80;;;5.10;;
61356;SDS011;47227;46.752;23.576;2023-05-07T00:14:31;7.90;;;5.50;;
61356;SDS011;47227;46.752;23.576;2023-05-07T00:18:03;6.90;;;5.20;;
61356;SDS011;47227;46.752;23.576;2023-05-07T00:21:32;5.70;;;4.80;;
61356;SDS011;47227;46.752;23.576;2023-05-07T00:25:08;6.50;;;4.10;;
61356;SDS011;47227;46.752;23.576;2023-05-07T00:28:49;4.90;;;4.20;;
61356;SDS011;47227;46.752;23.576;2023-05-07T00:32:30;4.90;;;4.20;;
61356;SDS011;47227;46.752;23.576;2023-05-07T00:36:01;7.10;;;4.20;;
61356;SDS011;47227;46.752;23.576;2023-05-07T00:39:45;4.50;;;4.10;;
61356;SDS011;47227;46.752;23.576;2023-05-07T00:43:24;4.70;;;3.60;;
61356;SDS011;47227;46.752;23.576;2023-05-07T00:46:58;6.10;;;3.50;;
61356;SDS011;47227;46.752;23.576;2023-05-07T00:50:33;7.90;;;3.90;;
61356;SDS011;47227;46.752;23.576;2023-05-07T00:54:02;5.00;;;4.20;;
61356;SDS011;47227;46.752;23.576;2023-05-07T00:56:31;4.60;;;4.00;;
61356;SDS011;47227;46.752;23.576;2023-05-07T00:59:00;5.30;;;4.40;;
61356;SDS011;47227;46.752;23.576;2023-05-07T01:01:29;6.10;;;5.00;;
61356;SDS011;47227;46.752;23.576;2023-05-07T01:03:57;5.50;;;4.80;;
61356;SDS011;47227;46.752;23.576;2023-05-07T01:06:25;5.70;;;4.70;;
61356;SDS011;47227;46.752;23.576;2023-05-07T01:08:57;6.60;;;5.10;;
61356;SDS011;47227;46.752;23.576;2023-05-07T01:11:26;6.30;;;4.80;;
61356;SDS011;47227;46.752;23.576;2023-05-07T01:13:54;5.90;;;5.30;;
61356;SDS011;47227;46.752;23.576;2023-05-07T01:16:22;6.50;;;5.50;;
61356;SDS011;47227;46.752;23.576;2023-05-07T01:18:50;5.80;;;4.70;;
61356;SDS011;47227;46.752;23.576;2023-05-07T01:21:18;6.10;;;5.40;;
61356;SDS011;47227;46.752;23.576;2023-05-07T01:23:54;5.90;;;5.30;;
61356;SDS011;47227;46.752;23.576;2023-05-07T01:26:23;11.00;;;5.50;;
61356;SDS011;47227;46.752;23.576;2023-05-07T01:28:52;8.30;;;5.90;;
61356;SDS011;47227;46.752;23.576;2023-05-07T01:31:19;6.90;;;6.00;;
61356;SDS011;47227;46.752;23.576;2023-05-07T01:33:48;11.40;;;6.00;;
61356;SDS011;47227;46.752;23.576;2023-05-07T01:36:22;7.90;;;5.60;;
61356;SDS011;47227;46.752;23.576;2023-05-07T01:38:55;9.80;;;5.50;;
61356;SDS011;47227;46.752;23.576;2023-05-07T01:41:25;5.40;;;4.90;;
61356;SDS011;47227;46.752;23.576;2023-05-07T01:43:54;5.60;;;5.10;;
61356;SDS011;47227;46.752;23.576;2023-05-07T01:46:22;9.70;;;4.70;;
61356;SDS011;47227;46.752;23.576;2023-05-07T01:48:52;5.10;;;4.70;;
61356;SDS011;47227;46.752;23.576;2023-05-07T01:51:21;4.40;;;4.00;;
61356;SDS011;47227;46.752;23.576;2023-05-07T01:53:50;4.60;;;4.20;;
61356;SDS011;47227;46.752;23.576;2023-05-07T01:56:21;4.30;;;3.90;;
61356;SDS011;47227;46.752;23.576;2023-05-07T01:58:49;4.60;;;4.10;;
61356;SDS011;47227;46.752;23.576;2023-05-07T02:01:19;8.40;;;4.40;;
61356;SDS011;47227;46.752;23.576;2023-05-07T02:03:48;5.00;;;4.10;;
61356;SDS011;47227;46.752;23.576;2023-05-07T02:06:19;5.30;;;4.10;;
61356;SDS011;47227;46.752;23.576;2023-05-07T02:08:48;7.20;;;4.60;;
61356;SDS011;47227;46.752;23.576;2023-05-07T02:11:16;5.70;;;5.10;;
61356;SDS011;47227;46.752;23.576;2023-05-07T02:13:44;5.30;;;4.90;;
61356;SDS011;47227;46.752;23.576;2023-05-07T02:16:12;6.30;;;5.40;;
61356;SDS011;47227;46.752;23.576;2023-05-07T02:18:42;6.10;;;5.50;;
61356;SDS011;47227;46.752;23.576;2023-05-07T02:21:09;5.70;;;5.10;;
61356;SDS011;47227;46.752;23.576;2023-05-07T02:23:37;5.50;;;4.90;;
61356;SDS011;47227;46.752;23.576;2023-05-07T02:26:05;6.00;;;5.50;;
61356;SDS011;47227;46.752;23.576;2023-05-07T02:28:34;6.10;;;5.30;;
61356;SDS011;47227;46.752;23.576;2023-05-07T02:31:05;6.20;;;5.60;;
61356;SDS011;47227;46.752;23.576;2023-05-07T02:33:33;6.30;;;5.20;;
61356;SDS011;47227;46.752;23.576;2023-05-07T02:36:08;6.70;;;5.30;;
61356;SDS011;47227;46.752;23.576;2023-05-07T02:38:43;5.60;;;5.00;;
61356;SDS011;47227;46.752;23.576;2023-05-07T02:41:12;4.50;;;4.10;;
61356;SDS011;47227;46.752;23.576;2023-05-07T02:43:40;7.10;;;4.50;;
61356;SDS011;47227;46.752;23.576;2023-05-07T02:46:08;6.00;;;3.80;;
61356;SDS011;47227;46.752;23.576;2023-05-07T02:48:41;4.00;;;3.70;;
61356;SDS011;47227;46.752;23.576;2023-05-07T02:51:09;4.70;;;3.80;;
61356;SDS011;47227;46.752;23.576;2023-05-07T02:53:38;5.00;;;4.10;;
61356;SDS011;47227;46.752;23.576;2023-05-07T02:56:06;4.80;;;4.00;;
61356;SDS011;47227;46.752;23.576;2023-05-07T02:58:35;4.40;;;4.00;;
61356;SDS011;47227;46.752;23.576;2023-05-07T03:01:03;4.30;;;3.80;;
61356;SDS011;47227;46.752;23.576;2023-05-07T03:03:37;4.60;;;4.20;;
61356;SDS011;47227;46.752;23.576;2023-05-07T03:06:05;5.40;;;4.50;;
61356;SDS011;47227;46.752;23.576;2023-05-07T03:08:34;13.40;;;5.30;;
61356;SDS011;47227;46.752;23.576;2023-05-07T03:11:02;5.30;;;4.30;;
61356;SDS011;47227;46.752;23.576;2023-05-07T03:13:31;6.20;;;4.80;;
61356;SDS011;47227;46.752;23.576;2023-05-07T03:15:59;5.80;;;5.30;;
61356;SDS011;47227;46.752;23.576;2023-05-07T03:18:27;7.20;;;5.40;;
61356;SDS011;47227;46.752;23.576;2023-05-07T03:20:55;7.30;;;5.30;;
61356;SDS011;47227;46.752;23.576;2023-05-07T03:23:23;5.00;;;4.40;;
61356;SDS011;47227;46.752;23.576;2023-05-07T03:25:54;8.40;;;4.70;;
61356;SDS011;47227;46.752;23.576;2023-05-07T03:28:22;6.00;;;5.40;;
61356;SDS011;47227;46.752;23.576;2023-05-07T03:30:54;5.70;;;5.20;;
61356;SDS011;47227;46.752;23.576;2023-05-07T03:33:22;5.70;;;5.20;;
61356;SDS011;47227;46.752;23.576;2023-05-07T03:35:51;5.60;;;5.10;;
61356;SDS011;47227;46.752;23.576;2023-05-07T03:38:22;7.70;;;5.00;;
61356;SDS011;47227;46.752;23.576;2023-05-07T03:40:50;7.30;;;4.60;;
61356;SDS011;47227;46.752;23.576;2023-05-07T03:43:18;4.70;;;4.30;;
61356;SDS011;47227;46.752;23.576;2023-05-07T03:45:51;5.70;;;5.20;;
61356;SDS011;47227;46.752;23.576;2023-05-07T03:48:22;8.60;;;7.10;;
61356;SDS011;47227;46.752;23.576;2023-05-07T03:50:53;11.20;;;7.70;;
61356;SDS011;47227;46.752;23.576;2023-05-07T03:53:21;4.80;;;4.40;;
61356;SDS011;47227;46.752;23.576;2023-05-07T03:55:49;4.50;;;4.10;;
61356;SDS011;47227;46.752;23.576;2023-05-07T03:58:18;6.50;;;4.50;;
61356;SDS011;47227;46.752;23.576;2023-05-07T04:00:47;4.20;;;3.80;;
61356;SDS011;47227;46.752;23.576;2023-05-07T04:03:21;8.40;;;4.30;;
61356;SDS011;47227;46.752;23.576;2023-05-07T04:05:51;4.30;;;3.80;;
61356;SDS011;47227;46.752;23.576;2023-05-07T04:08:19;4.80;;;4.30;;
61356;SDS011;47227;46.752;23.576;2023-05-07T04:10:54;4.20;;;3.80;;
61356;SDS011;47227;46.752;23.576;2023-05-07T04:13:30;4.70;;;4.30;;
61356;SDS011;47227;46.752;23.576;2023-05-07T04:16:00;5.20;;;3.90;;
61356;SDS011;47227;46.752;23.576;2023-05-07T04:18:30;5.00;;;4.30;;
61356;SDS011;47227;46.752;23.576;2023-05-07T04:20:58;5.30;;;4.50;;
61356;SDS011;47227;46.752;23.576;2023-05-07T04:23:26;7.30;;;4.60;;
61356;SDS011;47227;46.752;23.576;2023-05-07T04:25:54;4.90;;;4.50;;
61356;SDS011;47227;46.752;23.576;2023-05-07T04:28:26;6.00;;;5.00;;
61356;SDS011;47227;46.752;23.576;2023-05-07T04:30:54;5.40;;;4.80;;
61356;SDS011;47227;46.752;23.576;2023-05-07T04:33:23;4.80;;;4.40;;
61356;SDS011;47227;46.752;23.576;2023-05-07T04:35:51;6.70;;;5.70;;
61356;SDS011;47227;46.752;23.576;2023-05-07T04:38:19;8.30;;;4.90;;
61356;SDS011;47227;46.752;23.576;2023-05-07T04:40:48;5.70;;;5.20;;
61356;SDS011;47227;46.752;23.576;2023-05-07T04:43:19;5.50;;;5.00;;
61356;SDS011;47227;46.752;23.576;2023-05-07T04:45:50;5.60;;;5.00;;
61356;SDS011;47227;46.752;23.576;2023-05-07T04:48:19;5.30;;;4.80;;
61356;SDS011;47227;46.752;23.576;2023-05-07T04:50:48;7.20;;;4.80;;
61356;SDS011;47227;46.752;23.576;2023-05-07T04:53:18;5.10;;;4.60;;
61356;SDS011;47227;46.752;23.576;2023-05-07T04:55:54;5.40;;;4.90;;
61356;SDS011;47227;46.752;23.576;2023-05-07T04:58:28;10.40;;;5.30;;
61356;SDS011;47227;46.752;23.576;2023-05-07T05:00:59;7.50;;;4.80;;
61356;SDS011;47227;46.752;23.576;2023-05-07T05:03:28;5.80;;;4.50;;
61356;SDS011;47227;46.752;23.576;2023-05-07T05:05:58;6.70;;;4.30;;
61356;SDS011;47227;46.752;23.576;2023-05-07T05:08:30;5.90;;;4.50;;
61356;SDS011;47227;46.752;23.576;2023-05-07T05:11:00;4.40;;;4.00;;
61356;SDS011;47227;46.752;23.576;2023-05-07T05:13:31;5.70;;;4.30;;
61356;SDS011;47227;46.752;23.576;2023-05-07T05:16:02;5.60;;;4.10;;
61356;SDS011;47227;46.752;23.576;2023-05-07T05:19:07;5.40;;;3.90;;
61356;SDS011;47227;46.752;23.576;2023-05-07T05:23:01;4.70;;;4.30;;
61356;SDS011;47227;46.752;23.576;2023-05-07T05:26:35;5.40;;;4.70;;
61356;SDS011;47227;46.752;23.576;2023-05-07T05:30:13;6.50;;;4.40;;
61356;SDS011;47227;46.752;23.576;2023-05-07T05:33:52;7.00;;;4.40;;
61356;SDS011;47227;46.752;23.576;2023-05-07T05:37:40;5.90;;;5.30;;
61356;SDS011;47227;46.752;23.576;2023-05-07T05:41:23;4.70;;;4.30;;
61356;SDS011;47227;46.752;23.576;2023-05-07T05:49:29;5.70;;;4.60;;
61356;SDS011;47227;46.752;23.576;2023-05-07T05:53:12;9.40;;;5.80;;
61356;SDS011;47227;46.752;23.576;2023-05-07T05:56:51;6.30;;;5.50;;
61356;SDS011;47227;46.752;23.576;2023-05-07T06:00:26;5.90;;;5.40;;
61356;SDS011;47227;46.752;23.576;2023-05-07T06:07:47;8.30;;;5.90;;
61356;SDS011;47227;46.752;23.576;2023-05-07T06:10:58;8.40;;;5.80;;
61356;SDS011;47227;46.752;23.576;2023-05-07T06:14:29;6.10;;;5.60;;
61356;SDS011;47227;46.752;23.576;2023-05-07T06:17:47;7.20;;;6.40;;
61356;SDS011;47227;46.752;23.576;2023-05-07T06:21:02;7.70;;;7.00;;
61356;SDS011;47227;46.752;23.576;2023-05-07T06:24:31;7.20;;;6.50;;
61356;SDS011;47227;46.752;23.576;2023-05-07T06:28:21;8.30;;;7.30;;
61356;SDS011;47227;46.752;23.576;2023-05-07T06:32:10;6.80;;;6.10;;
61356;SDS011;47227;46.752;23.576;2023-05-07T06:35:50;8.50;;;6.10;;
61356;SDS011;47227;46.752;23.576;2023-05-07T06:39:20;7.10;;;5.80;;
61356;SDS011;47227;46.752;23.576;2023-05-07T06:43:09;10.80;;;5.60;;
61356;SDS011;47227;46.752;23.576;2023-05-07T06:50:19;6.60;;;5.50;;
61356;SDS011;47227;46.752;23.576;2023-05-07T06:53:59;7.20;;;4.80;;
61356;SDS011;47227;46.752;23.576;2023-05-07T06:57:46;6.40;;;5.80;;
61356;SDS011;47227;46.752;23.576;2023-05-07T07:01:15;6.20;;;5.60;;
61356;SDS011;47227;46.752;23.576;2023-05-07T07:04:53;5.50;;;5.10;;
61356;SDS011;47227;46.752;23.576;2023-05-07T07:08:25;8.60;;;5.80;;
61356;SDS011;47227;46.752;23.576;2023-05-07T07:11:58;8.10;;;6.50;;
61356;SDS011;47227;46.752;23.576;2023-05-07T07:15:39;6.90;;;6.00;;
61356;SDS011;47227;46.752;23.576;2023-05-07T07:19:11;6.70;;;6.00;;
61356;SDS011;47227;46.752;23.576;2023-05-07T07:23:28;7.80;;;7.10;;
61356;SDS011;47227;46.752;23.576;2023-05-07T07:27:01;7.90;;;6.60;;
61356;SDS011;47227;46.752;23.576;2023-05-07T07:30:47;7.70;;;7.00;;
61356;SDS011;47227;46.752;23.576;2023-05-07T07:34:20;8.70;;;7.10;;
61356;SDS011;47227;46.752;23.576;2023-05-07T07:38:07;10.90;;;7.90;;
61356;SDS011;47227;46.752;23.576;2023-05-07T07:41:51;12.30;;;8.20;;
61356;SDS011;47227;46.752;23.576;2023-05-07T07:45:56;19.40;;;9.60;;
61356;SDS011;47227;46.752;23.576;2023-05-07T07:49:57;12.00;;;9.00;;
61356;SDS011;47227;46.752;23.576;2023-05-07T07:54:02;12.10;;;8.40;;
61356;SDS011;47227;46.752;23.576;2023-05-07T07:58:03;13.20;;;8.30;;
61356;SDS011;47227;46.752;23.576;2023-05-07T08:01:34;10.70;;;7.10;;
61356;SDS011;47227;46.752;23.576;2023-05-07T08:05:21;10.90;;;8.50;;
61356;SDS011;47227;46.752;23.576;2023-05-07T08:08:53;9.90;;;7.10;;
61356;SDS011;47227;46.752;23.576;2023-05-07T08:12:25;13.70;;;7.40;;
61356;SDS011;47227;46.752;23.576;2023-05-07T08:15:55;10.10;;;6.90;;
61356;SDS011;47227;46.752;23.576;2023-05-07T08:20:01;13.60;;;7.30;;
61356;SDS011;47227;46.752;23.576;2023-05-07T08:23:40;9.40;;;8.10;;
61356;SDS011;47227;46.752;23.576;2023-05-07T08:26:58;10.60;;;8.60;;
61356;SDS011;47227;46.752;23.576;2023-05-07T08:30:14;12.10;;;8.60;;
61356;SDS011;47227;46.752;23.576;2023-05-07T08:34:20;9.00;;;8.10;;
61356;SDS011;47227;46.752;23.576;2023-05-07T08:37:39;9.00;;;8.10;;
61356;SDS011;47227;46.752;23.576;2023-05-07T08:40:56;10.50;;;8.50;;
61356;SDS011;47227;46.752;23.576;2023-05-07T08:44:53;12.70;;;9.40;;
61356;SDS011;47227;46.752;23.576;2023-05-07T08:48:43;12.50;;;9.30;;
61356;SDS011;47227;46.752;23.576;2023-05-07T08:52:26;9.30;;;8.00;;
61356;SDS011;47227;46.752;23.576;2023-05-07T08:56:06;10.30;;;8.30;;
61356;SDS011;47227;46.752;23.576;2023-05-07T08:59:51;8.90;;;8.10;;
61356;SDS011;47227;46.752;23.576;2023-05-07T09:03:22;14.80;;;7.50;;
61356;SDS011;47227;46.752;23.576;2023-05-07T09:06:51;12.50;;;9.00;;
61356;SDS011;47227;46.752;23.576;2023-05-07T09:10:11;8.30;;;6.80;;
61356;SDS011;47227;46.752;23.576;2023-05-07T09:13:55;10.50;;;7.90;;
61356;SDS011;47227;46.752;23.576;2023-05-07T09:17:41;11.00;;;6.80;;
61356;SDS011;47227;46.752;23.576;2023-05-07T09:21:01;8.20;;;5.90;;
61356;SDS011;47227;46.752;23.576;2023-05-07T09:24:23;10.20;;;6.50;;
61356;SDS011;47227;46.752;23.576;2023-05-07T09:27:56;11.40;;;7.10;;
61356;SDS011;47227;46.752;23.576;2023-05-07T09:31:36;9.60;;;6.70;;
61356;SDS011;47227;46.752;23.576;2023-05-07T09:35:21;11.70;;;8.20;;
61356;SDS011;47227;46.752;23.576;2023-05-07T09:39:02;11.20;;;8.20;;
61356;SDS011;47227;46.752;23.576;2023-05-07T09:42:45;9.70;;;7.40;;
61356;SDS011;47227;46.752;23.576;2023-05-07T09:46:31;12.90;;;9.40;;
61356;SDS011;47227;46.752;23.576;2023-05-07T09:50:10;10.30;;;9.20;;
61356;SDS011;47227;46.752;23.576;2023-05-07T09:53:52;13.00;;;9.20;;
61356;SDS011;47227;46.752;23.576;2023-05-07T09:57:30;10.00;;;8.40;;
61356;SDS011;47227;46.752;23.576;2023-05-07T10:01:04;13.40;;;9.00;;
61356;SDS011;47227;46.752;23.576;2023-05-07T10:04:38;11.00;;;8.40;;
61356;SDS011;47227;46.752;23.576;2023-05-07T10:08:15;12.30;;;8.40;;
61356;SDS011;47227;46.752;23.576;2023-05-07T10:15:38;12.70;;;8.30;;
61356;SDS011;47227;46.752;23.576;2023-05-07T10:19:42;12.10;;;9.00;;
61356;SDS011;47227;46.752;23.576;2023-05-07T10:23:36;9.90;;;8.00;;
61356;SDS011;47227;46.752;23.576;2023-05-07T10:27:20;9.10;;;7.70;;
61356;SDS011;47227;46.752;23.576;2023-05-07T10:34:29;9.10;;;8.20;;
61356;SDS011;47227;46.752;23.576;2023-05-07T10:37:47;8.10;;;7.10;;
61356;SDS011;47227;46.752;23.576;2023-05-07T10:41:09;8.10;;;7.30;;
61356;SDS011;47227;46.752;23.576;2023-05-07T10:44:40;9.70;;;7.70;;
61356;SDS011;47227;46.752;23.576;2023-05-07T10:48:19;8.30;;;7.30;;
61356;SDS011;47227;46.752;23.576;2023-05-07T10:51:47;16.90;;;8.10;;
61356;SDS011;47227;46.752;23.576;2023-05-07T10:58:22;13.50;;;7.20;;
61356;SDS011;47227;46.752;23.576;2023-05-07T11:04:38;8.80;;;6.60;;
61356;SDS011;47227;46.752;23.576;2023-05-07T11:07:20;7.00;;;6.30;;
61356;SDS011;47227;46.752;23.576;2023-05-07T11:10:56;7.90;;;7.10;;
61356;SDS011;47227;46.752;23.576;2023-05-07T11:14:46;11.50;;;6.10;;
61356;SDS011;47227;46.752;23.576;2023-05-07T11:17:20;7.40;;;5.70;;
61356;SDS011;47227;46.752;23.576;2023-05-07T11:19:55;9.00;;;6.10;;
61356;SDS011;47227;46.752;23.576;2023-05-07T11:25:27;6.40;;;5.60;;
61356;SDS011;47227;46.752;23.576;2023-05-07T11:28:05;6.00;;;5.40;;
61356;SDS011;47227;46.752;23.576;2023-05-07T11:30:35;7.70;;;5.50;;
61356;SDS011;47227;46.752;23.576;2023-05-07T11:33:04;7.60;;;5.10;;
61356;SDS011;47227;46.752;23.576;2023-05-07T11:35:33;7.70;;;5.30;;
61356;SDS011;47227;46.752;23.576;2023-05-07T11:38:04;5.40;;;4.60;;
61356;SDS011;47227;46.752;23.576;2023-05-07T11:40:48;11.30;;;4.40;;
61356;SDS011;47227;46.752;23.576;2023-05-07T11:44:00;7.80;;;4.10;;
61356;SDS011;47227;46.752;23.576;2023-05-07T11:47:31;5.30;;;3.90;;
61356;SDS011;47227;46.752;23.576;2023-05-07T11:51:09;5.20;;;4.00;;
61356;SDS011;47227;46.752;23.576;2023-05-07T11:55:09;5.50;;;4.40;;
61356;SDS011;47227;46.752;23.576;2023-05-07T11:58:56;3.90;;;3.60;;
61356;SDS011;47227;46.752;23.576;2023-05-07T12:02:37;3.20;;;2.90;;
61356;SDS011;47227;46.752;23.576;2023-05-07T12:06:14;8.10;;;3.20;;
61356;SDS011;47227;46.752;23.576;2023-05-07T12:09:55;4.30;;;3.00;;
61356;SDS011;47227;46.752;23.576;2023-05-07T12:13:33;9.40;;;3.60;;
61356;SDS011;47227;46.752;23.576;2023-05-07T12:20:11;4.50;;;3.00;;
61356;SDS011;47227;46.752;23.576;2023-05-07T12:23:39;5.90;;;3.60;;
61356;SDS011;47227;46.752;23.576;2023-05-07T12:30:28;4.00;;;3.30;;
61356;SDS011;47227;46.752;23.576;2023-05-07T12:33:50;3.60;;;3.20;;
61356;SDS011;47227;46.752;23.576;2023-05-07T12:37:31;5.80;;;3.80;;
61356;SDS011;47227;46.752;23.576;2023-05-07T12:41:16;3.70;;;3.30;;
61356;SDS011;47227;46.752;23.576;2023-05-07T12:44:50;3.40;;;3.00;;
61356;SDS011;47227;46.752;23.576;2023-05-07T12:48:22;4.50;;;3.70;;
61356;SDS011;47227;46.752;23.576;2023-05-07T12:52:11;3.90;;;3.00;;
61356;SDS011;47227;46.752;23.576;2023-05-07T12:55:56;5.30;;;3.00;;
61356;SDS011;47227;46.752;23.576;2023-05-07T12:59:06;3.50;;;2.70;;
61356;SDS011;47227;46.752;23.576;2023-05-07T13:02:51;4.50;;;3.10;;
61356;SDS011;47227;46.752;23.576;2023-05-07T13:06:53;5.10;;;2.70;;
61356;SDS011;47227;46.752;23.576;2023-05-07T13:10:04;5.90;;;2.90;;
61356;SDS011;47227;46.752;23.576;2023-05-07T13:13:42;2.80;;;2.50;;
61356;SDS011;47227;46.752;23.576;2023-05-07T13:17:15;3.40;;;2.50;;
61356;SDS011;47227;46.752;23.576;2023-05-07T13:21:14;4.20;;;2.90;;
61356;SDS011;47227;46.752;23.576;2023-05-07T13:24:50;3.10;;;2.60;;
61356;SDS011;47227;46.752;23.576;2023-05-07T13:28:28;3.30;;;3.00;;
61356;SDS011;47227;46.752;23.576;2023-05-07T13:32:03;4.90;;;2.80;;
61356;SDS011;47227;46.752;23.576;2023-05-07T13:36:05;3.10;;;2.80;;
61356;SDS011;47227;46.752;23.576;2023-05-07T13:40:38;4.90;;;3.10;;
61356;SDS011;47227;46.752;23.576;2023-05-07T13:44:42;5.70;;;4.10;;
61356;SDS011;47227;46.752;23.576;2023-05-07T13:48:24;5.60;;;4.20;;
61356;SDS011;47227;46.752;23.576;2023-05-07T13:52:19;4.60;;;4.00;;
61356;SDS011;47227;46.752;23.576;2023-05-07T13:56:13;8.20;;;4.30;;
61356;SDS011;47227;46.752;23.576;2023-05-07T13:59:55;4.20;;;3.80;;
61356;SDS011;47227;46.752;23.576;2023-05-07T14:03:43;5.70;;;3.60;;
61356;SDS011;47227;46.752;23.576;2023-05-07T14:07:27;5.10;;;3.70;;
61356;SDS011;47227;46.752;23.576;2023-05-07T14:10:57;4.30;;;3.30;;
61356;SDS011;47227;46.752;23.576;2023-05-07T14:15:09;6.80;;;3.30;;
61356;SDS011;47227;46.752;23.576;2023-05-07T14:18:58;3.80;;;3.40;;
61356;SDS011;47227;46.752;23.576;2023-05-07T14:22:31;6.00;;;3.60;;
61356;SDS011;47227;46.752;23.576;2023-05-07T14:26:34;4.40;;;3.40;;
61356;SDS011;47227;46.752;23.576;2023-05-07T14:30:58;5.70;;;4.00;;
61356;SDS011;47227;46.752;23.576;2023-05-07T14:34:40;5.60;;;3.30;;
61356;SDS011;47227;46.752;23.576;2023-05-07T14:38:03;4.80;;;3.40;;
61356;SDS011;47227;46.752;23.576;2023-05-07T14:41:49;4.90;;;3.00;;
61356;SDS011;47227;46.752;23.576;2023-05-07T14:45:21;4.00;;;3.50;;
61356;SDS011;47227;46.752;23.576;2023-05-07T14:48:56;3.50;;;3.20;;
61356;SDS011;47227;46.752;23.576;2023-05-07T14:52:39;4.30;;;3.60;;
61356;SDS011;47227;46.752;23.576;2023-05-07T14:56:12;4.40;;;4.00;;
61356;SDS011;47227;46.752;23.576;2023-05-07T14:59:58;5.20;;;3.60;;
61356;SDS011;47227;46.752;23.576;2023-05-07T15:07:01;3.90;;;3.50;;
61356;SDS011;47227;46.752;23.576;2023-05-07T15:10:47;4.10;;;3.70;;
61356;SDS011;47227;46.752;23.576;2023-05-07T15:14:29;4.40;;;4.00;;
61356;SDS011;47227;46.752;23.576;2023-05-07T15:17:58;4.70;;;4.30;;
61356;SDS011;47227;46.752;23.576;2023-05-07T15:22:01;4.30;;;3.80;;
61356;SDS011;47227;46.752;23.576;2023-05-07T15:25:31;3.70;;;3.40;;
61356;SDS011;47227;46.752;23.576;2023-05-07T15:29:18;3.90;;;3.60;;
61356;SDS011;47227;46.752;23.576;2023-05-07T15:32:50;4.00;;;3.60;;
61356;SDS011;47227;46.752;23.576;2023-05-07T15:36:56;5.60;;;3.80;;
61356;SDS011;47227;46.752;23.576;2023-05-07T15:40:28;6.50;;;3.60;;
61356;SDS011;47227;46.752;23.576;2023-05-07T15:44:16;3.70;;;3.40;;
61356;SDS011;47227;46.752;23.576;2023-05-07T15:48:17;4.40;;;4.00;;
61356;SDS011;47227;46.752;23.576;2023-05-07T15:52:03;5.50;;;3.80;;
61356;SDS011;47227;46.752;23.576;2023-05-07T15:55:42;4.10;;;3.70;;
61356;SDS011;47227;46.752;23.576;2023-05-07T15:59:09;5.90;;;3.80;;
61356;SDS011;47227;46.752;23.576;2023-05-07T16:02:59;6.80;;;4.10;;
61356;SDS011;47227;46.752;23.576;2023-05-07T16:06:39;4.30;;;3.90;;
61356;SDS011;47227;46.752;23.576;2023-05-07T16:10:18;4.70;;;4.30;;
61356;SDS011;47227;46.752;23.576;2023-05-07T16:17:07;7.00;;;1.80;;
61356;SDS011;47227;46.752;23.576;2023-05-07T16:20:38;8.50;;;2.80;;
61356;SDS011;47227;46.752;23.576;2023-05-07T16:24:24;9.00;;;2.80;;
61356;SDS011;47227;46.752;23.576;2023-05-07T16:28:19;6.80;;;3.00;;
61356;SDS011;47227;46.752;23.576;2023-05-07T16:32:12;5.50;;;1.90;;
61356;SDS011;47227;46.752;23.576;2023-05-07T16:35:49;5.90;;;2.20;;
61356;SDS011;47227;46.752;23.576;2023-05-07T16:38:51;3.20;;;1.60;;
61356;SDS011;47227;46.752;23.576;2023-05-07T16:42:32;2.20;;;1.60;;
61356;SDS011;47227;46.752;23.576;2023-05-07T16:46:09;4.30;;;1.90;;
61356;SDS011;47227;46.752;23.576;2023-05-07T16:49:41;4.10;;;1.60;;
61356;SDS011;47227;46.752;23.576;2023-05-07T16:53:31;2.40;;;1.60;;
61356;SDS011;47227;46.752;23.576;2023-05-07T16:57:23;1.90;;;1.50;;
61356;SDS011;47227;46.752;23.576;2023-05-07T17:01:06;5.80;;;1.80;;
61356;SDS011;47227;46.752;23.576;2023-05-07T17:04:43;7.90;;;2.00;;
61356;SDS011;47227;46.752;23.576;2023-05-07T17:07:11;3.40;;;2.10;;
61356;SDS011;47227;46.752;23.576;2023-05-07T17:09:41;3.60;;;1.90;;
61356;SDS011;47227;46.752;23.576;2023-05-07T17:12:09;5.40;;;2.20;;
61356;SDS011;47227;46.752;23.576;2023-05-07T17:14:37;2.40;;;1.60;;
61356;SDS011;47227;46.752;23.576;2023-05-07T17:17:05;3.30;;;2.00;;
61356;SDS011;47227;46.752;23.576;2023-05-07T17:19:37;4.20;;;2.40;;
61356;SDS011;47227;46.752;23.576;2023-05-07T17:22:06;4.00;;;2.30;;
61356;SDS011;47227;46.752;23.576;2023-05-07T17:24:38;3.70;;;2.60;;
61356;SDS011;47227;46.752;23.576;2023-05-07T17:27:06;9.10;;;2.30;;
61356;SDS011;47227;46.752;23.576;2023-05-07T17:29:34;2.40;;;1.90;;
61356;SDS011;47227;46.752;23.576;2023-05-07T17:32:02;2.40;;;2.10;;
61356;SDS011;47227;46.752;23.576;2023-05-07T17:34:32;5.50;;;2.30;;
61356;SDS011;47227;46.752;23.576;2023-05-07T17:37:01;4.80;;;2.80;;
61356;SDS011;47227;46.752;23.576;2023-05-07T17:39:29;7.50;;;3.40;;
61356;SDS011;47227;46.752;23.576;2023-05-07T17:42:00;3.30;;;2.50;;
61356;SDS011;47227;46.752;23.576;2023-05-07T17:44:28;7.80;;;2.90;;
61356;SDS011;47227;46.752;23.576;2023-05-07T17:46:56;4.80;;;3.90;;
61356;SDS011;47227;46.752;23.576;2023-05-07T17:49:24;3.80;;;3.40;;
61356;SDS011;47227;46.752;23.576;2023-05-07T17:51:52;4.60;;;3.30;;
61356;SDS011;47227;46.752;23.576;2023-05-07T17:54:22;4.00;;;3.10;;
61356;SDS011;47227;46.752;23.576;2023-05-07T17:56:52;6.90;;;3.80;;
61356;SDS011;47227;46.752;23.576;2023-05-07T17:59:21;5.10;;;3.70;;
61356;SDS011;47227;46.752;23.576;2023-05-07T18:01:49;6.40;;;3.00;;
61356;SDS011;47227;46.752;23.576;2023-05-07T18:04:17;5.20;;;2.90;;
61356;SDS011;47227;46.752;23.576;2023-05-07T18:06:48;4.90;;;3.30;;
61356;SDS011;47227;46.752;23.576;2023-05-07T18:10:10;5.50;;;3.30;;
61356;SDS011;47227;46.752;23.576;2023-05-07T18:13:40;5.30;;;2.40;;
61356;SDS011;47227;46.752;23.576;2023-05-07T18:17:11;3.20;;;2.70;;
61356;SDS011;47227;46.752;23.576;2023-05-07T18:20:42;3.30;;;3.00;;
61356;SDS011;47227;46.752;23.576;2023-05-07T18:24:00;3.10;;;2.30;;
61356;SDS011;47227;46.752;23.576;2023-05-07T18:27:29;3.10;;;2.30;;
61356;SDS011;47227;46.752;23.576;2023-05-07T18:30:47;2.80;;;2.40;;
61356;SDS011;47227;46.752;23.576;2023-05-07T18:41:44;3.10;;;2.80;;
61356;SDS011;47227;46.752;23.576;2023-05-07T18:52:18;6.20;;;5.30;;
61356;SDS011;47227;46.752;23.576;2023-05-07T18:55:59;6.60;;;3.40;;
61356;SDS011;47227;46.752;23.576;2023-05-07T18:59:03;5.60;;;2.60;;
61356;SDS011;47227;46.752;23.576;2023-05-07T19:02:33;1.60;;;1.50;;
61356;SDS011;47227;46.752;23.576;2023-05-07T19:05:59;10.20;;;2.40;;
61356;SDS011;47227;46.752;23.576;2023-05-07T19:09:50;2.40;;;2.20;;
61356;SDS011;47227;46.752;23.576;2023-05-07T19:13:18;3.20;;;2.50;;
61356;SDS011;47227;46.752;23.576;2023-05-07T19:16:46;4.60;;;3.60;;
61356;SDS011;47227;46.752;23.576;2023-05-07T19:19:48;5.00;;;3.30;;
61356;SDS011;47227;46.752;23.576;2023-05-07T19:24:28;2.70;;;1.90;;
61356;SDS011;47227;46.752;23.576;2023-05-07T19:27:47;2.10;;;1.90;;
61356;SDS011;47227;46.752;23.576;2023-05-07T19:34:11;3.50;;;1.80;;
61356;SDS011;47227;46.752;23.576;2023-05-07T19:37:25;2.80;;;1.80;;
61356;SDS011;47227;46.752;23.576;2023-05-07T19:41:12;2.00;;;1.40;;
61356;SDS011;47227;46.752;23.576;2023-05-07T19:44:54;3.50;;;1.60;;
61356;SDS011;47227;46.752;23.576;2023-05-07T19:48:40;2.60;;;1.70;;
61356;SDS011;47227;46.752;23.576;2023-05-07T19:51:52;2.90;;;2.10;;